x

San Clemente Basin - 27nm Se Of San Clemente Is, Ca (46086) Wave Buoy

12:50am - Thu 2nd Oct 2014 All times are PDT. -7 hours from GMT.

  • Sig Wave height 3.9ft
  • Swell Direction
  • Peak Period 11s
  • Average Period 8s
  • Wind
    2mph
  • Sea Temp 72°f
  • Air Temp 70°f
  • Sea Pressure 1011.2mb
  • San Clemente Basin - 27nm Se Of San Clemente Is, Ca
  • San Clemente Basin - 27nm Se Of San Clemente Is, Ca

More Historic Weather Station data

Upgrade to MSW Pro to gain access to the past 30 days of data for over 8000 Wavebouys and Weather Stations around the globe.

Join Pro

Comparision Forecast

View Surf forecast
   
Thu 10/02 12:50am 4ft 11s 8s 2
mph
1011.2mb 72f 70f
Wed 10/01 11:50pm 4.5ft 15s 8s 4
mph
1011.3mb 72f 69f
10:50pm 4ft 10s 8s 4 7 mph 1011.2mb 72f 69f
9:50pm 4ft 11s 7s 4
mph
1011.2mb 73f 69f
8:50pm 4.5ft 10s 7s 2
mph
1010.8mb 73f 69f
7:50pm 5ft 11s 7s 2 4 mph 1010mb 73f 69f
6:50pm 4.5ft 9s 7s 7 9 mph 1009.6mb 73f 69f
5:50pm 4.5ft 8s 7s 9 11 mph 1009mb 73f 69f
4:50pm 5ft 10s 7s 9 11 mph 1008.5mb 73f 69f
3:50pm 5ft 10s 7s 9 11 mph 1008.6mb 73f 69f
2:50pm 4.5ft 11s 7s 9 11 mph 1008.5mb 72f 68f
1:50pm 5ft 9s 7s 7 9 mph 1008.8mb 73f 68f
12:50pm 4.5ft 11s 7s 4 7 mph 1009.4mb 73f 68f
11:50am 4.5ft 10s 7s 4 9 mph 1009.7mb 72f 68f
10:50am 4.5ft 8s 7s 4 7 mph 1010mb 71f 68f
9:50am 4ft 11s 6s 7 9 mph 1010.1mb 71f 68f
8:50am 4ft 8s 6s 7 9 mph 1009.6mb 71f 68f
7:50am 4.5ft 8s 6s 7 9 mph 1009.5mb 71f 67f
6:50am 4.5ft 8s 6s 9
mph
1009mb 71f 67f
5:50am 4.5ft 8s 6s 9 11 mph 1008.4mb 72f 67f
4:50am 4.5ft 7s 6s 9 11 mph 1007.9mb 72f 67f
3:50am 4.5ft 8s 6s 9 11 mph 1007.7mb 72f 68f
2:50am 4.5ft 8s 6s 9 11 mph 1008mb 72f 68f
1:50am 4ft 7s 6s 7 9 mph 1008mb 72f 69f
12:50am 4.5ft 8s 6s 7 9 mph 1008mb 72f 69f
Tue 09/30 11:50pm 4ft 9s 6s 9
mph
1008.4mb 72f 69f
10:50pm 4ft 13s 6s 11 13 mph 1008.5mb 72f 69f
9:50pm 4ft 11s 6s 13 16 mph 1008.6mb 72f 70f
8:50pm 4.5ft 8s 6s 13 16 mph 1008.5mb 72f 70f
7:50pm 4.5ft 11s 5s 13
mph
1008.2mb 72f 70f
6:50pm 4.5ft 8s 5s 13 16 mph 1008mb 72f 69f
5:50pm 4ft 8s 5s 16 18 mph 1007.9mb 72f 70f
4:50pm 3.5ft 7s 6s 13 16 mph 1008.1mb 72f 71f
3:50pm 3.5ft 8s 6s 13 16 mph 1008.2mb 72f 71f
2:50pm 3.5ft 12s 7s 11 16 mph 1008.9mb 72f 71f
1:50pm 4ft 7s 7s 9 11 mph 1009.7mb 72f 71f
12:50pm 3.5ft 7s 6s 11
mph
1010.5mb 72f 71f
11:50am 3.5ft 8s 7s 11
mph
1011mb 72f 70f
10:50am 3.5ft 13s 7s 11
mph
1011.3mb 72f 70f
9:50am 3.5ft 14s 6s 9
mph
1011.3mb 71f 69f
8:50am 3.5ft 12s 6s 7
mph
1011.2mb 71f 69f
7:50am 3.5ft 7s 6s 4 7 mph 1010.9mb 71f 68f
6:50am 3.5ft 11s 6s 7 9 mph 1010.7mb 71f 68f
5:50am 3.5ft 11s 5s 7 9 mph 1010.5mb 71f 68f
4:50am 3.5ft 6s 5s 9 11 mph 1010.6mb 71f 68f
3:50am 4ft 11s 6s 9
mph
1010.7mb 71f 68f
2:50am 3.5ft 6s 5s 9 11 mph 1011.1mb 71f 68f
1:50am 4ft 6s 5s 7 9 mph 1011.6mb 72f 68f
12:50am 4ft 10s 6s 9 11 mph 1011.7mb 72f 69f
Mon 09/29 11:50pm 3.5ft 14s 5s 9 11 mph 1012mb 72f 69f
10:50pm 4ft 12s 5s 9 11 mph 1012mb 71f 70f
9:50pm 4ft 12s 5s 16 20 mph 1011.9mb 71f 69f
8:50pm 4ft 11s 5s 16 18 mph 1011.6mb 71f 69f
7:50pm 4ft 11s 5s 16 18 mph 1011.3mb 72f 69f
6:50pm 3.5ft 11s 5s 16 18 mph 1011.1mb 72f 69f
5:50pm 3.5ft 12s 5s 20 25 mph 1010.4mb 72f 70f
4:50pm 4ft 11s 5s 13 16 mph 1010.8mb 72f 70f
3:50pm 3.5ft 13s 5s 18 20 mph 1010.9mb 72f 69f
2:50pm 3.5ft 12s 5s 18 20 mph 1011.4mb 72f 69f
1:50pm 3.5ft 10s 6s 18 20 mph 1011.9mb 72f 68f
12:50pm 3.5ft 12s 7s 11 16 mph 1012.9mb 72f 68f
11:50am 3ft 10s 7s 9 11 mph 1013.6mb 72f 68f
10:50am 3.5ft 10s 7s 7 9 mph 1013.8mb 71f 68f
9:50am 3.5ft 11s 6s 9 11 mph 1013.8mb 71f 67f
8:50am 3.5ft 11s 7s 9 11 mph 1013.7mb 71f 68f
7:50am 4ft 11s 6s 7 9 mph 1013.2mb 71f 67f
6:50am 3.5ft 11s 6s 7 9 mph 1012.9mb 71f 67f
5:50am 4ft 11s 6s 9 11 mph 1012.7mb 71f 67f
4:50am 4ft 10s 6s 9 11 mph 1012.6mb 71f 67f
3:50am 4ft 10s 5s 11 13 mph 1012.6mb 71f 67f
2:50am 4.5ft 11s 6s 11 13 mph 1012.8mb 71f 67f
1:50am 4ft 11s 5s 11 13 mph 1013mb 71f 67f
12:50am 4.5ft 10s 6s 9 13 mph 1013mb 71f 67f
Sun 09/28 11:50pm 4.5ft 11s 6s 13 18 mph 1013.2mb 71f 67f
10:50pm 4.5ft 10s 6s 16 20 mph 1013.1mb 71f 67f
9:50pm 4.5ft 11s 5s 13 18 mph 1013.3mb 71f 67f
8:50pm 4.5ft 9s 5s 16 20 mph 1013.1mb 72f 67f
7:50pm 4.5ft 11s 5s 18 20 mph 1012.7mb 71f 67f
6:50pm 4.5ft 10s 6s 16 20 mph 1012.3mb 72f 67f
5:50pm 4.5ft 10s 6s 13 18 mph 1012.5mb 72f 68f
4:50pm 5ft 9s 6s 13 18 mph 1012.5mb 72f 69f
3:50pm 5ft 9s 6s 13 16 mph 1012.4mb 72f 69f
2:50pm 5ft 7s 6s 13 16 mph 1012.9mb 72f 68f
1:50pm 5.5ft 9s 6s 13 16 mph 1013.3mb 72f 69f
12:50pm 6ft 8s 6s 11 13 mph 1013.5mb 71f 68f
11:50am 5.5ft 7s 6s 9 13 mph 1014mb 71f 68f
10:50am 6ft 7s 6s 7 9 mph 1013.9mb 71f 69f
9:50am 6ft 8s 6s 11 13 mph 1013.8mb 71f 68f
8:50am 6ft 8s 6s 11 18 mph 1013.2mb 71f 68f